Time;durP1;ratioP1;P1;durP2;ratioP2;P2;SDS_P1;SDS_P2;PMS_P1;PMS_P2;Temp;Humidity;BMP_temperature;BMP_pressure;BME280_temperature;BME280_humidity;BME280_pressure;Samples;Min_cycle;Max_cycle;Signal;HPM_P1;HPM_P2
2023/10/03 00:01:11;;;;;;;14.80;8.00;;;;;;;14.47;85.74;100814.94;105082;1259;69048;-59
2023/10/03 00:03:40;;;;;;;13.20;8.10;;;;;;;14.48;85.80;100804.48;105113;1259;69181;-59
2023/10/03 00:06:09;;;;;;;12.40;7.50;;;;;;;14.49;85.53;100803.75;105140;1259;74481;-59
2023/10/03 00:08:38;;;;;;;14.00;7.50;;;;;;;14.44;85.30;100796.77;105121;1259;83400;-59
2023/10/03 00:11:16;;;;;;;13.00;7.30;;;;;;;14.43;85.58;100797.13;105100;1259;73404;-59
2023/10/03 00:13:46;;;;;;;14.30;7.40;;;;;;;14.41;85.45;100795.35;105070;1261;69291;-59
2023/10/03 00:16:15;;;;;;;13.60;7.60;;;;;;;14.36;85.29;100796.26;105104;1261;69124;-59
2023/10/03 00:18:43;;;;;;;15.20;7.70;;;;;;;14.34;85.64;100794.42;105147;1259;74795;-59
2023/10/03 00:21:12;;;;;;;12.70;7.00;;;;;;;14.36;85.82;100785.04;105125;1262;83602;-59
2023/10/03 00:23:40;;;;;;;11.50;6.90;;;;;;;14.39;85.98;100787.68;105125;1261;72305;-59
2023/10/03 00:26:13;;;;;;;12.80;8.00;;;;;;;14.42;85.93;100780.52;105045;1260;69195;-59
2023/10/03 00:28:44;;;;;;;12.50;7.50;;;;;;;14.43;85.81;100773.77;105075;1260;69147;-59
2023/10/03 00:31:13;;;;;;;12.20;6.90;;;;;;;14.39;85.43;100772.05;105094;1262;73818;-59
2023/10/03 00:33:43;;;;;;;14.00;6.80;;;;;;;14.37;85.49;100773.55;105098;1259;83696;-59
2023/10/03 00:36:22;;;;;;;14.50;7.70;;;;;;;14.33;85.31;100772.17;105028;1260;72795;-59
2023/10/03 00:38:51;;;;;;;13.10;7.30;;;;;;;14.28;85.50;100770.44;105080;1259;69205;-59
2023/10/03 00:41:20;;;;;;;16.00;7.60;;;;;;;14.29;85.61;100764.95;105099;1260;69125;-59
2023/10/03 00:44:04;;;;;;;12.30;6.70;;;;;;;14.26;85.49;100763.15;105097;1259;75084;-59
2023/10/03 00:46:33;;;;;;;11.50;7.00;;;;;;;14.23;85.71;100754.84;105069;1259;83113;-59
2023/10/03 00:49:09;;;;;;;15.50;7.60;;;;;;;14.23;85.70;100755.75;105115;1260;72654;-59
2023/10/03 00:51:40;;;;;;;13.80;7.90;;;;;;;14.21;85.52;100754.23;105042;1259;69228;-59
2023/10/03 00:54:10;;;;;;;12.90;7.80;;;;;;;14.17;85.41;100751.09;105105;1259;69192;-58
2023/10/03 00:56:43;;;;;;;13.90;7.40;;;;;;;14.14;85.65;100752.63;105042;1263;73225;-59
2023/10/03 00:59:13;;;;;;;15.40;8.10;;;;;;;14.11;85.65;100748.07;105086;1259;82823;-59
2023/10/03 01:01:46;;;;;;;15.50;7.90;;;;;;;14.09;85.72;100744.27;105096;1259;72605;-59
2023/10/03 01:04:19;;;;;;;10.90;7.30;;;;;;;14.05;85.54;100743.39;105075;1262;69185;-59
2023/10/03 01:06:49;;;;;;;15.10;8.00;;;;;;;14.01;85.81;100732.65;105133;1262;69276;-59
2023/10/03 01:09:24;;;;;;;16.00;8.30;;;;;;;14.04;86.03;100731.85;105096;1262;73720;-59
2023/10/03 01:11:56;;;;;;;15.00;8.00;;;;;;;14.06;86.24;100726.63;105096;1259;83636;-59
2023/10/03 01:14:27;;;;;;;14.50;7.70;;;;;;;14.07;86.13;100722.05;105064;1259;73691;-59
2023/10/03 01:16:56;;;;;;;15.20;7.50;;;;;;;14.05;85.88;100719.85;105055;1259;69196;-59
2023/10/03 01:19:30;;;;;;;16.10;8.20;;;;;;;14.01;85.92;100714.76;105084;1262;69248;-59
2023/10/03 01:21:59;;;;;;;12.00;7.80;;;;;;;13.97;85.84;100714.93;105095;1260;73910;-59
2023/10/03 01:24:29;;;;;;;21.80;9.50;;;;;;;13.94;85.70;100711.77;105066;1260;83664;-59
2023/10/03 01:26:57;;;;;;;14.20;8.60;;;;;;;13.96;86.01;100710.23;105089;1259;71845;-59
2023/10/03 01:29:26;;;;;;;16.90;8.70;;;;;;;14.01;86.37;100710.37;105097;1260;69074;-59
2023/10/03 01:31:55;;;;;;;15.40;8.10;;;;;;;14.00;86.23;100708.13;105050;1259;69096;-59
2023/10/03 01:34:23;;;;;;;18.30;8.50;;;;;;;14.02;86.30;100702.23;105139;1262;74198;-59
2023/10/03 01:36:52;;;;;;;18.00;8.60;;;;;;;14.06;86.42;100697.98;105109;1259;83391;-59
2023/10/03 01:39:21;;;;;;;18.30;8.90;;;;;;;14.07;86.36;100694.96;105063;1263;73888;-58
2023/10/03 01:41:49;;;;;;;16.80;8.30;;;;;;;14.08;86.23;100700.72;105062;1259;69278;-58
2023/10/03 01:44:18;;;;;;;15.80;8.30;;;;;;;14.08;86.28;100700.58;105093;1261;69194;-59
2023/10/03 01:46:47;;;;;;;14.70;8.60;;;;;;;14.10;86.42;100702.59;105143;1262;73861;-59
2023/10/03 01:49:16;;;;;;;17.70;8.50;;;;;;;14.15;86.53;100706.39;105064;1261;82976;-59
2023/10/03 01:51:44;;;;;;;16.30;8.60;;;;;;;14.19;86.45;100707.21;105089;1262;73652;-59
2023/10/03 01:54:12;;;;;;;15.00;8.40;;;;;;;14.21;86.24;100709.08;105140;1260;69191;-59
2023/10/03 01:56:41;;;;;;;14.20;7.80;;;;;;;14.21;86.15;100703.45;105097;1259;69071;-59
2023/10/03 01:59:10;;;;;;;15.00;8.40;;;;;;;14.21;86.14;100703.42;105043;1259;74858;-60
2023/10/03 02:01:38;;;;;;;14.90;8.50;;;;;;;14.22;86.14;100702.19;105066;1263;83472;-60
2023/10/03 02:04:07;;;;;;;14.80;8.80;;;;;;;14.23;86.19;100697.57;105066;1260;73631;-59
2023/10/03 02:06:36;;;;;;;17.70;8.40;;;;;;;14.23;86.04;100694.42;105122;1260;69068;-59
2023/10/03 02:09:07;;;;;;;13.20;7.80;;;;;;;14.23;86.13;100690.15;105055;1259;69084;-60
2023/10/03 02:11:37;;;;;;;12.60;8.50;;;;;;;14.25;86.00;100689.04;105078;1259;73870;-59
2023/10/03 02:14:08;;;;;;;14.80;8.10;;;;;;;14.23;85.88;100682.80;105093;1258;82975;-60
2023/10/03 02:16:41;;;;;;;14.90;8.00;;;;;;;14.22;85.89;100679.34;105068;1259;72648;-59
2023/10/03 02:19:09;;;;;;;13.00;7.80;;;;;;;14.20;85.75;100678.02;105058;1259;69087;-59
2023/10/03 02:21:42;;;;;;;16.60;7.50;;;;;;;14.18;85.67;100673.55;105022;1262;69839;-60
2023/10/03 02:24:12;;;;;;;15.20;8.10;;;;;;;14.17;85.77;100669.04;105087;1259;74204;-59
2023/10/03 02:26:41;;;;;;;16.80;7.80;;;;;;;14.19;85.96;100666.13;105086;1262;83731;-60
2023/10/03 02:29:10;;;;;;;16.40;8.10;;;;;;;14.21;86.07;100657.44;105124;1259;72910;-60
2023/10/03 02:31:38;;;;;;;16.30;7.90;;;;;;;14.22;85.87;100660.02;105054;1262;69304;-60
2023/10/03 02:34:07;;;;;;;15.40;8.20;;;;;;;14.18;85.77;100657.05;105027;1259;69139;-59
2023/10/03 02:36:35;;;;;;;14.60;8.30;;;;;;;14.14;85.70;100651.98;105065;1259;74930;-60
2023/10/03 02:39:06;;;;;;;15.80;7.90;;;;;;;14.12;85.79;100647.64;105077;1262;83716;-60
2023/10/03 02:41:34;;;;;;;15.00;8.20;;;;;;;14.10;85.67;100646.37;105056;1262;73729;-60
2023/10/03 02:44:03;;;;;;;14.00;7.40;;;;;;;14.05;85.54;100641.63;105053;1259;69142;-59
2023/10/03 02:46:33;;;;;;;15.10;8.00;;;;;;;14.02;85.74;100640.05;105032;1264;69203;-59
2023/10/03 02:49:02;;;;;;;14.60;7.60;;;;;;;13.99;85.83;100634.71;105053;1259;74325;-60
2023/10/03 02:51:32;;;;;;;15.80;7.60;;;;;;;14.01;86.18;100630.63;105042;1264;83378;-60
2023/10/03 02:54:00;;;;;;;17.70;8.20;;;;;;;14.01;86.01;100629.04;105017;1259;73727;-60
2023/10/03 02:56:29;;;;;;;13.00;7.80;;;;;;;13.97;85.81;100630.29;105059;1260;69297;-60
2023/10/03 02:58:57;;;;;;;15.90;7.90;;;;;;;13.92;85.96;100628.73;105088;1259;69120;-60
2023/10/03 03:01:26;;;;;;;16.00;8.20;;;;;;;13.89;85.61;100622.55;105088;1260;73789;-59
2023/10/03 03:03:54;;;;;;;14.30;7.70;;;;;;;13.80;85.61;100615.79;105086;1260;82511;-59
2023/10/03 03:06:23;;;;;;;16.40;8.60;;;;;;;13.74;85.64;100612.91;105110;1261;72021;-60
2023/10/03 03:08:52;;;;;;;13.70;8.00;;;;;;;13.70;85.76;100614.83;105094;1259;69186;-60
2023/10/03 03:11:21;;;;;;;12.40;6.90;;;;;;;13.65;85.82;100609.29;105102;1262;69151;-59
2023/10/03 03:13:49;;;;;;;12.90;7.30;;;;;;;13.64;86.09;100611.61;105144;1260;75012;-59
2023/10/03 03:16:18;;;;;;;13.30;8.10;;;;;;;13.59;85.84;100605.89;105075;1262;83401;-60
2023/10/03 03:18:50;;;;;;;14.80;7.80;;;;;;;13.57;86.23;100601.02;105138;1259;73671;-59
2023/10/03 03:21:20;;;;;;;14.90;7.10;;;;;;;13.57;86.26;100598.57;105066;1260;69190;-59
2023/10/03 03:24:08;;;;;;;16.60;8.40;;;;;;;13.54;86.13;100595.57;105080;1260;69072;-59
2023/10/03 03:26:37;;;;;;;14.50;8.30;;;;;;;13.54;86.53;100590.65;105111;1260;73759;-59
2023/10/03 03:29:19;;;;;;;16.40;8.20;;;;;;;13.52;86.31;100587.60;105090;1262;82207;-59
2023/10/03 03:31:50;;;;;;;17.70;8.40;;;;;;;13.50;86.44;100583.46;105108;1259;73455;-59
2023/10/03 03:34:21;;;;;;;15.70;7.90;;;;;;;13.47;86.36;100579.59;105054;1258;69132;-59
2023/10/03 03:36:54;;;;;;;15.10;7.80;;;;;;;13.47;86.68;100581.33;105074;1262;69831;-60
2023/10/03 03:39:27;;;;;;;14.80;8.00;;;;;;;13.46;86.66;100571.21;105054;1260;74825;-59
2023/10/03 03:41:56;;;;;;;14.10;7.80;;;;;;;13.45;86.75;100566.14;105096;1261;82355;-59
2023/10/03 03:44:25;;;;;;;14.20;7.60;;;;;;;13.46;87.05;100571.35;105099;1260;73642;-59
2023/10/03 03:46:54;;;;;;;12.50;7.40;;;;;;;13.41;86.51;100568.23;105130;1258;69177;-59
2023/10/03 03:49:23;;;;;;;13.60;7.80;;;;;;;13.34;86.32;100567.70;105069;1259;69176;-60
2023/10/03 03:51:53;;;;;;;16.30;7.70;;;;;;;13.27;86.30;100566.95;105087;1260;73717;-59
2023/10/03 03:54:22;;;;;;;17.20;8.10;;;;;;;13.25;86.58;100566.85;105098;1262;83497;-59
2023/10/03 03:56:50;;;;;;;14.80;7.70;;;;;;;13.22;86.42;100562.08;105028;1262;73752;-59
2023/10/03 03:59:19;;;;;;;14.00;7.40;;;;;;;13.20;86.79;100559.73;105078;1262;69197;-60
2023/10/03 04:01:49;;;;;;;16.00;8.30;;;;;;;13.22;86.92;100554.73;105084;1262;69248;-59
2023/10/03 04:04:19;;;;;;;15.40;7.40;;;;;;;13.19;86.85;100549.77;105116;1262;74879;-59
2023/10/03 04:06:48;;;;;;;14.50;8.00;;;;;;;13.17;86.97;100542.28;105108;1260;82512;-59
2023/10/03 04:09:17;;;;;;;16.10;7.60;;;;;;;13.17;87.21;100539.83;105053;1258;73756;-59
2023/10/03 04:11:47;;;;;;;14.40;7.50;;;;;;;13.16;87.27;100534.96;105103;1262;69145;-59
2023/10/03 04:14:15;;;;;;;15.30;8.30;;;;;;;13.15;87.11;100526.92;105095;1261;69215;-60
2023/10/03 04:16:44;;;;;;;15.90;7.80;;;;;;;13.13;87.20;100527.20;105067;1260;73862;-59
2023/10/03 04:19:13;;;;;;;19.00;7.60;;;;;;;13.10;87.14;100524.91;105176;1259;83371;-60
2023/10/03 04:21:41;;;;;;;12.50;7.10;;;;;;;13.11;87.39;100523.27;105121;1260;73934;-59
2023/10/03 04:24:11;;;;;;;14.10;7.30;;;;;;;13.14;87.66;100519.45;105078;1260;69186;-59
2023/10/03 04:26:42;;;;;;;11.90;7.10;;;;;;;13.18;87.78;100519.42;105093;1260;69083;-59
2023/10/03 04:29:13;;;;;;;12.90;7.20;;;;;;;13.17;87.69;100512.45;105101;1259;74821;-60
2023/10/03 04:31:46;;;;;;;14.20;7.40;;;;;;;13.20;87.67;100507.95;105151;1262;83243;-59
2023/10/03 04:34:19;;;;;;;14.60;7.40;;;;;;;13.21;87.69;100503.00;105069;1262;73490;-60
2023/10/03 04:36:48;;;;;;;12.70;6.70;;;;;;;13.20;87.58;100499.54;105100;1262;69207;-59
2023/10/03 04:39:20;;;;;;;15.60;6.70;;;;;;;13.22;87.67;100495.22;105100;1260;69226;-59
2023/10/03 04:41:48;;;;;;;14.60;6.80;;;;;;;13.24;87.73;100492.86;105116;1259;73867;-60
2023/10/03 04:44:17;;;;;;;13.30;7.20;;;;;;;13.27;87.97;100495.37;105086;1261;82321;-59
2023/10/03 04:46:48;;;;;;;13.00;6.80;;;;;;;13.28;87.65;100490.23;105078;1260;73519;-59
2023/10/03 04:49:16;;;;;;;10.80;6.60;;;;;;;13.28;87.66;100486.89;105088;1263;69194;-59
2023/10/03 04:51:47;;;;;;;14.30;6.40;;;;;;;13.30;87.49;100487.35;105151;1262;69163;-59
2023/10/03 04:54:16;;;;;;;10.80;6.00;;;;;;;13.28;87.46;100482.00;105194;1262;74610;-59
2023/10/03 04:56:46;;;;;;;14.60;7.50;;;;;;;13.29;87.50;100481.60;105241;1261;83261;-58
2023/10/03 04:59:15;;;;;;;13.00;6.80;;;;;;;13.28;87.39;100481.29;105298;1260;73744;-59
2023/10/03 05:01:43;;;;;;;13.60;7.00;;;;;;;13.28;87.48;100478.64;105091;1262;69187;-59
2023/10/03 05:04:14;;;;;;;13.00;6.60;;;;;;;13.32;87.63;100473.70;105061;1262;69196;-58
2023/10/03 05:06:43;;;;;;;13.50;6.20;;;;;;;13.39;87.87;100474.63;105143;1259;76099;-59
2023/10/03 05:09:12;;;;;;;12.90;5.80;;;;;;;13.45;87.86;100470.63;105335;1262;82624;-58
2023/10/03 05:11:41;;;;;;;10.50;5.50;;;;;;;13.52;87.96;100468.55;105253;1262;72635;-59
2023/10/03 05:14:12;;;;;;;10.10;6.10;;;;;;;13.60;87.92;100467.66;105161;1262;69190;-59
2023/10/03 05:16:40;;;;;;;14.90;7.00;;;;;;;13.67;87.79;100466.98;105168;1262;69113;-58
2023/10/03 05:19:09;;;;;;;15.00;6.20;;;;;;;13.72;87.75;100467.95;105224;1262;73194;-59
2023/10/03 05:21:38;;;;;;;9.90;5.80;;;;;;;13.78;87.45;100470.27;105233;1262;83240;-58
2023/10/03 05:24:10;;;;;;;13.00;6.60;;;;;;;13.83;87.39;100471.77;105210;1260;73857;-59
2023/10/03 05:26:40;;;;;;;14.30;6.10;;;;;;;13.88;87.18;100469.81;105328;1262;69204;-59
2023/10/03 05:29:09;;;;;;;12.60;6.00;;;;;;;13.92;87.07;100466.60;105272;1259;69182;-59
2023/10/03 05:31:40;;;;;;;12.10;6.70;;;;;;;13.95;86.98;100464.69;105103;1262;74883;-59
2023/10/03 05:34:09;;;;;;;12.00;5.50;;;;;;;13.99;86.82;100460.45;105123;1260;82406;-59
2023/10/03 05:36:38;;;;;;;11.70;5.90;;;;;;;14.04;86.78;100458.45;105089;1259;73264;-59
2023/10/03 05:39:11;;;;;;;13.10;6.60;;;;;;;14.08;86.72;100455.11;105263;1262;69174;-58
2023/10/03 05:41:41;;;;;;;11.10;6.20;;;;;;;14.13;86.74;100442.70;105158;1259;69147;-58
2023/10/03 05:44:13;;;;;;;10.60;6.00;;;;;;;14.18;86.79;100440.15;105218;1260;74737;-58
2023/10/03 05:46:45;;;;;;;11.40;6.10;;;;;;;14.23;86.64;100432.85;105197;1262;82652;-58
2023/10/03 05:49:13;;;;;;;12.80;6.50;;;;;;;14.28;86.59;100429.60;105118;1267;73689;-58
2023/10/03 05:51:41;;;;;;;12.90;6.70;;;;;;;14.35;86.60;100428.75;105064;1259;69099;-60
2023/10/03 05:54:09;;;;;;;11.00;6.20;;;;;;;14.42;86.42;100429.23;105110;1260;69145;-59
2023/10/03 05:56:38;;;;;;;11.80;5.90;;;;;;;14.49;86.48;100427.98;105091;1262;75068;-59
2023/10/03 05:59:06;;;;;;;11.60;6.00;;;;;;;14.56;86.25;100432.98;105116;1261;82455;-58
2023/10/03 06:01:35;;;;;;;11.00;5.60;;;;;;;14.61;86.18;100428.79;105270;1259;72706;-60
2023/10/03 06:04:04;;;;;;;12.20;6.10;;;;;;;14.67;86.05;100426.52;105097;1262;69135;-59
2023/10/03 06:06:33;;;;;;;10.60;6.10;;;;;;;14.74;85.92;100428.45;105196;1262;68953;-60
2023/10/03 06:09:02;;;;;;;13.30;6.70;;;;;;;14.81;85.81;100430.22;105229;1260;74892;-59
2023/10/03 06:11:31;;;;;;;10.60;5.60;;;;;;;14.87;85.56;100423.54;105191;1262;83642;-59
2023/10/03 06:14:00;;;;;;;11.00;6.00;;;;;;;14.92;85.50;100422.35;105219;1259;72624;-59
2023/10/03 06:16:28;;;;;;;10.50;6.00;;;;;;;14.98;85.32;100419.95;105146;1258;69208;-59
2023/10/03 06:18:57;;;;;;;12.80;5.60;;;;;;;15.04;85.30;100415.77;105151;1259;69110;-58
2023/10/03 06:21:25;;;;;;;11.10;5.50;;;;;;;15.10;85.16;100420.19;105195;1262;74572;-60
2023/10/03 06:23:54;;;;;;;12.40;6.10;;;;;;;15.15;85.08;100417.03;104983;1261;350976;-59
2023/10/03 06:26:22;;;;;;;9.30;5.70;;;;;;;15.22;84.98;100415.64;105207;1260;73409;-58
2023/10/03 06:28:51;;;;;;;18.00;6.20;;;;;;;15.27;84.80;100414.63;105171;1262;69197;-59
2023/10/03 06:31:20;;;;;;;11.10;5.90;;;;;;;15.32;84.68;100410.45;105069;1262;69094;-59
2023/10/03 06:33:49;;;;;;;13.40;6.00;;;;;;;15.38;84.66;100409.95;105086;1261;75085;-59
2023/10/03 06:36:18;;;;;;;12.70;6.30;;;;;;;15.44;84.48;100408.08;104906;1262;83312;-59
2023/10/03 06:38:49;;;;;;;12.60;5.90;;;;;;;15.49;84.47;100407.25;105189;1259;73894;-59
2023/10/03 06:41:19;;;;;;;10.50;5.80;;;;;;;15.53;84.33;100401.88;105100;1259;69221;-59
2023/10/03 06:43:49;;;;;;;11.80;5.90;;;;;;;15.58;84.23;100401.22;105085;1259;69196;-59
2023/10/03 06:46:17;;;;;;;14.50;5.90;;;;;;;15.63;84.12;100402.36;105060;1262;74938;-59
2023/10/03 06:48:46;;;;;;;10.70;6.20;;;;;;;15.68;84.07;100394.16;105084;1262;83014;-58
2023/10/03 06:51:16;;;;;;;10.60;5.90;;;;;;;15.74;83.98;100398.27;105095;1259;73315;-59
2023/10/03 06:53:48;;;;;;;10.50;6.00;;;;;;;15.79;83.88;100389.99;105092;1261;69214;-59
2023/10/03 06:56:16;;;;;;;11.70;6.20;;;;;;;15.85;83.68;100394.96;105127;1260;69231;-59
2023/10/03 06:58:46;;;;;;;11.60;5.90;;;;;;;15.90;83.64;100393.23;105087;1259;74794;-59
2023/10/03 07:01:15;;;;;;;9.30;5.80;;;;;;;15.95;83.45;100393.98;105102;1262;83371;-59
2023/10/03 07:03:44;;;;;;;10.70;5.20;;;;;;;16.00;83.34;100390.19;105089;1262;73860;-59
2023/10/03 07:06:13;;;;;;;11.90;6.40;;;;;;;16.04;83.24;100393.29;105107;1258;69091;-59
2023/10/03 07:08:42;;;;;;;10.70;5.40;;;;;;;16.09;83.12;100388.25;105097;1262;69130;-59
2023/10/03 07:11:12;;;;;;;10.90;5.90;;;;;;;16.14;83.17;100387.23;105075;1262;73507;-59
2023/10/03 07:13:40;;;;;;;;;;;;;;;16.19;83.01;100388.70;105097;1260;83634;-59
2023/10/03 07:16:09;;;;;;;11.90;6.20;;;;;;;16.23;82.97;100385.09;105092;1262;73674;-59
2023/10/03 07:18:39;;;;;;;10.80;6.20;;;;;;;16.27;82.92;100383.80;105072;1260;69239;-59
2023/10/03 07:21:08;;;;;;;11.40;5.10;;;;;;;16.34;82.90;100381.62;105094;1262;69266;-59
2023/10/03 07:23:38;;;;;;;11.10;6.00;;;;;;;16.40;82.88;100380.52;105117;1262;74908;-58
2023/10/03 07:26:12;;;;;;;11.10;5.70;;;;;;;16.48;82.88;100380.54;105036;1260;82855;-59
2023/10/03 07:28:41;;;;;;;13.20;6.20;;;;;;;16.57;82.79;100376.80;105080;1260;73904;-59
2023/10/03 07:31:13;;;;;;;;;;;;;;;16.68;82.83;100376.69;105101;1262;69197;-59
2023/10/03 07:33:43;;;;;;;12.30;6.00;;;;;;;16.79;82.73;100372.69;105108;1260;69180;-58
2023/10/03 07:36:13;;;;;;;10.80;6.10;;;;;;;16.88;82.67;100366.76;105110;1260;74834;-59
2023/10/03 07:38:42;;;;;;;11.80;5.30;;;;;;;16.99;82.61;100361.48;105086;1262;82348;-58
2023/10/03 07:41:13;;;;;;;12.30;6.10;;;;;;;17.12;82.53;100356.45;105026;1262;73012;-58
2023/10/03 07:43:41;;;;;;;13.30;6.10;;;;;;;17.24;82.38;100355.14;105053;1262;69263;-59
2023/10/03 07:46:09;;;;;;;11.30;6.60;;;;;;;17.38;82.34;100351.21;105092;1262;69204;-59
2023/10/03 07:48:38;;;;;;;11.60;6.40;;;;;;;17.52;82.00;100353.44;105084;1260;74664;-59
2023/10/03 07:51:06;;;;;;;8.70;5.80;;;;;;;17.66;81.77;100350.61;105106;1262;82556;-59
2023/10/03 07:53:36;;;;;;;13.60;6.10;;;;;;;17.78;81.60;100348.14;105042;1260;72698;-58
2023/10/03 07:56:08;;;;;;;;;;;;;;;17.92;81.47;100341.02;105094;1263;69109;-59
2023/10/03 07:58:37;;;;;;;11.70;6.20;;;;;;;18.07;81.30;100338.27;105060;1260;69127;-59
2023/10/03 08:01:05;;;;;;;12.60;6.10;;;;;;;18.22;81.19;100333.86;105137;1262;73916;-59
2023/10/03 08:03:33;;;;;;;10.60;5.90;;;;;;;18.40;81.20;100333.61;105084;1262;83354;-59
2023/10/03 08:06:03;;;;;;;11.60;5.40;;;;;;;18.58;80.88;100330.75;105126;1260;73432;-59
2023/10/03 08:08:33;;;;;;;10.20;5.70;;;;;;;18.77;80.73;100332.27;105071;1262;69524;-59
2023/10/03 08:11:06;;;;;;;11.20;5.60;;;;;;;18.97;80.52;100332.57;105146;1262;69119;-59
2023/10/03 08:13:38;;;;;;;11.50;5.90;;;;;;;19.18;80.37;100331.02;105062;1261;73523;-58
2023/10/03 08:16:07;;;;;;;13.10;6.10;;;;;;;19.43;80.25;100335.02;105085;1261;82601;-58
2023/10/03 08:18:39;;;;;;;14.80;6.70;;;;;;;19.62;79.58;100332.75;105105;1262;73733;-58
2023/10/03 08:21:08;;;;;;;11.70;6.20;;;;;;;19.80;79.34;100327.60;105068;1262;69123;-58
2023/10/03 08:23:37;;;;;;;14.10;6.80;;;;;;;20.02;79.14;100327.88;105082;1263;69072;-58
2023/10/03 08:26:06;;;;;;;10.20;6.80;;;;;;;20.21;78.57;100326.07;105097;1263;73829;-58
2023/10/03 08:28:35;;;;;;;12.10;6.50;;;;;;;20.42;78.42;100327.42;105036;1259;83301;-58
2023/10/03 08:31:06;;;;;;;10.40;6.00;;;;;;;20.61;77.80;100320.24;105040;1263;73745;-58
2023/10/03 08:33:36;;;;;;;11.10;6.60;;;;;;;20.79;77.43;100318.09;105088;1261;69255;-59
2023/10/03 08:36:14;;;;;;;14.10;6.20;;;;;;;21.02;77.08;100314.98;105040;1262;69168;-58
2023/10/03 08:38:43;;;;;;;11.90;6.70;;;;;;;21.24;76.28;100299.30;105092;1259;73967;-58
2023/10/03 08:41:15;;;;;;;13.10;6.90;;;;;;;21.46;75.87;100298.90;105149;1260;83200;-59
2023/10/03 08:43:43;;;;;;;15.80;6.70;;;;;;;21.67;75.11;100297.11;105059;1260;72622;-59
2023/10/03 08:46:15;;;;;;;11.00;5.50;;;;;;;21.85;74.37;100299.47;105070;1262;69154;-58
2023/10/03 08:48:44;;;;;;;9.90;6.70;;;;;;;22.04;73.80;100301.64;105058;1261;69180;-58
2023/10/03 08:51:13;;;;;;;12.70;6.70;;;;;;;22.19;73.05;100293.56;105066;1263;74804;-58
2023/10/03 08:53:47;;;;;;;12.40;6.20;;;;;;;22.35;72.55;100290.36;105104;1259;83688;-59
2023/10/03 08:56:19;;;;;;;10.10;6.10;;;;;;;22.53;72.11;100288.05;105001;1262;73588;-59
2023/10/03 08:58:50;;;;;;;11.10;6.20;;;;;;;22.72;71.62;100279.63;105065;1262;69184;-58
2023/10/03 09:01:19;;;;;;;11.60;6.40;;;;;;;22.93;71.24;100274.55;105082;1262;69136;-58
2023/10/03 09:03:51;;;;;;;9.30;5.90;;;;;;;23.13;70.45;100267.70;105111;1262;73164;-59
2023/10/03 09:06:20;;;;;;;9.70;6.20;;;;;;;23.32;69.71;100264.66;105046;1260;82405;-59
2023/10/03 09:09:08;;;;;;;9.00;6.50;;;;;;;23.53;69.16;100250.66;105086;1262;73379;-59
2023/10/03 09:11:38;;;;;;;13.10;6.30;;;;;;;23.76;68.52;100246.55;105051;1259;69065;-59
2023/10/03 09:14:08;;;;;;;9.10;6.00;;;;;;;23.98;68.07;100243.94;105109;1262;69113;-59
2023/10/03 09:16:39;;;;;;;;;;;;;;;24.20;67.43;100243.95;105125;1262;74838;-59
2023/10/03 09:19:12;;;;;;;13.80;6.70;;;;;;;24.42;66.71;100243.05;105068;1262;83827;-59
2023/10/03 09:21:40;;;;;;;9.10;5.80;;;;;;;24.66;66.33;100242.83;105074;1263;73928;-58
2023/10/03 09:24:16;;;;;;;16.10;7.10;;;;;;;24.89;65.67;100234.31;105019;1262;69139;-59
2023/10/03 09:26:51;;;;;;;9.10;5.60;;;;;;;25.12;64.63;100231.82;105071;1259;69196;-58
2023/10/03 09:29:32;;;;;;;11.60;6.00;;;;;;;25.36;64.18;100232.68;105055;1260;74722;-59
2023/10/03 09:32:13;;;;;;;10.80;5.80;;;;;;;25.60;63.10;100230.91;105067;1260;83304;-59
2023/10/03 09:34:43;;;;;;;14.50;8.20;;;;;;;25.82;62.44;100238.80;105084;1262;73745;-59
2023/10/03 09:37:12;;;;;;;19.00;14.60;;;;;;;26.10;61.97;100239.69;105066;1260;69127;-59
2023/10/03 09:39:48;;;;;;;10.70;6.10;;;;;;;26.41;61.58;100231.75;105095;1260;69198;-58
2023/10/03 09:42:23;;;;;;;12.50;5.90;;;;;;;26.69;59.96;100232.19;105076;1261;74790;-59
2023/10/03 09:44:57;;;;;;;9.70;5.50;;;;;;;26.89;58.31;100228.16;105096;1261;83641;-58
2023/10/03 09:47:30;;;;;;;11.50;5.50;;;;;;;27.05;57.33;100227.21;105053;1262;73490;-59
2023/10/03 09:50:08;;;;;;;10.40;6.00;;;;;;;27.24;56.67;100225.29;105073;1262;69139;-60
2023/10/03 09:52:37;;;;;;;10.40;5.60;;;;;;;27.44;55.69;100222.74;105066;1264;69130;-59
2023/10/03 09:55:17;;;;;;;9.80;5.30;;;;;;;27.70;55.13;100219.16;105090;1262;75139;-59
2023/10/03 09:57:51;;;;;;;;;;;;;;;27.96;53.45;100219.85;105129;1266;82577;-57
2023/10/03 10:00:25;;;;;;;11.10;5.70;;;;;;;28.12;53.39;100218.20;105027;1259;74042;-57
2023/10/03 10:02:55;;;;;;;9.00;5.40;;;;;;;28.34;52.99;100213.17;105045;1262;69246;-57
2023/10/03 10:05:27;;;;;;;8.90;5.60;;;;;;;28.57;52.56;100213.55;105061;1262;69167;-57
2023/10/03 10:08:12;;;;;;;9.50;5.30;;;;;;;28.80;52.00;100210.91;105083;1262;74725;-58
2023/10/03 10:10:41;;;;;;;8.30;4.90;;;;;;;29.00;51.16;100208.78;105074;1262;83123;-57
2023/10/03 10:13:24;;;;;;;8.40;4.90;;;;;;;29.04;50.35;100200.87;105114;1263;73465;-57
2023/10/03 10:16:03;;;;;;;9.00;5.20;;;;;;;29.10;49.70;100199.45;105076;1262;69192;-57
2023/10/03 10:18:43;;;;;;;;;;;;;;;29.02;48.98;100200.38;105132;1263;69088;-58
2023/10/03 10:21:22;;;;;;;7.80;5.20;;;;;;;28.89;48.51;100197.19;105066;1263;74163;-58
2023/10/03 10:24:15;;;;;;;8.80;4.90;;;;;;;28.66;47.71;100193.48;105071;1262;83240;-58
2023/10/03 10:26:49;;;;;;;7.80;5.10;;;;;;;28.54;47.94;100186.12;105089;1263;73950;-58
2023/10/03 10:29:24;;;;;;;9.10;5.10;;;;;;;28.55;47.99;100179.81;105061;1263;69194;-58
2023/10/03 10:31:59;;;;;;;8.60;4.70;;;;;;;28.56;47.84;100174.31;105078;1271;69135;-58
2023/10/03 10:34:29;;;;;;;7.80;4.60;;;;;;;28.51;47.73;100171.47;105046;1260;74204;-58
2023/10/03 10:37:15;;;;;;;11.00;5.00;;;;;;;28.59;47.56;100164.25;105070;1261;82643;-58
2023/10/03 10:43:04;;;;;;;9.30;4.80;;;;;;;28.63;46.99;100147.06;105009;1263;69164;-58
2023/10/03 10:45:40;;;;;;;8.30;4.90;;;;;;;28.58;46.76;100149.60;105080;1263;69255;-58
2023/10/03 10:48:11;;;;;;;7.60;4.70;;;;;;;28.56;46.55;100148.21;105035;1263;74584;-58
2023/10/03 10:51:02;;;;;;;11.90;4.70;;;;;;;28.52;46.30;100140.84;105066;1262;83220;-58
2023/10/03 10:53:42;;;;;;;6.60;4.50;;;;;;;28.59;46.36;100131.89;105047;1262;73677;-58
2023/10/03 10:56:12;;;;;;;6.70;4.50;;;;;;;28.88;46.21;100124.02;105100;1263;69199;-58
2023/10/03 10:58:53;;;;;;;9.00;4.70;;;;;;;29.32;45.91;100123.55;105131;1263;69211;-59
2023/10/03 11:01:22;;;;;;;9.40;5.40;;;;;;;29.74;45.58;100118.32;105050;1262;75017;-58
2023/10/03 11:03:50;;;;;;;10.70;5.40;;;;;;;30.19;45.37;100120.20;105065;1262;83958;-58
2023/10/03 11:06:23;;;;;;;10.60;5.10;;;;;;;30.63;44.83;100112.36;105048;1263;73537;-58
2023/10/03 11:08:52;;;;;;;11.30;5.00;;;;;;;31.02;44.13;100105.80;105039;1259;69206;-58
2023/10/03 11:11:21;;;;;;;;;;;;;;;31.28;43.42;100097.43;105130;1262;69193;-58
2023/10/03 11:13:50;;;;;;;12.50;4.70;;;;;;;31.58;42.98;100094.66;105143;1261;74835;-59
2023/10/03 11:16:26;;;;;;;8.20;4.70;;;;;;;31.97;42.60;100091.70;105107;1263;82908;-59
2023/10/03 11:18:56;;;;;;;10.70;5.00;;;;;;;32.22;41.86;100089.02;105035;1259;72844;-59
2023/10/03 11:21:25;;;;;;;10.10;5.30;;;;;;;32.38;41.54;100076.44;105026;1271;69142;-59
2023/10/03 11:24:15;;;;;;;8.00;4.60;;;;;;;32.48;41.07;100069.08;105136;1262;69180;-59
2023/10/03 11:26:51;;;;;;;9.70;5.30;;;;;;;32.20;40.17;100068.91;105064;1271;73798;-59
2023/10/03 11:29:48;;;;;;;8.70;5.10;;;;;;;31.95;40.21;100065.27;105089;1262;82319;-59
2023/10/03 11:32:29;;;;;;;8.80;4.90;;;;;;;31.61;39.97;100060.75;105092;1263;73965;-59